Time;durP1;ratioP1;P1;durP2;ratioP2;P2;SDS_P1;SDS_P2;PMS_P1;PMS_P2;Temp;Humidity;BMP_temperature;BMP_pressure;BME280_temperature;BME280_humidity;BME280_pressure;Samples;Min_cycle;Max_cycle;Signal;HPM_P1;HPM_P2
2022/06/08 00:00:06;;;;;;;2.00;1.58;;;;;;;13.84;86.04;98207.44;4185541;28;20068;-73
2022/06/08 00:02:07;;;;;;;1.80;1.58;;;;;;;13.92;85.67;98206.19;4192013;28;20043;-72
2022/06/08 00:04:10;;;;;;;1.50;1.40;;;;;;;13.95;85.35;98201.78;4186570;28;20028;-73
2022/06/08 00:06:12;;;;;;;1.80;1.30;;;;;;;14.06;82.52;98202.50;4186234;28;20113;-72
2022/06/08 00:08:13;;;;;;;1.55;1.45;;;;;;;14.09;83.40;98196.13;4186215;28;20453;-73
2022/06/08 00:10:13;;;;;;;1.52;1.35;;;;;;;14.13;83.27;98193.31;4185970;28;20028;-73
2022/06/08 00:12:14;;;;;;;1.63;1.40;;;;;;;14.17;83.05;98200.44;4186401;28;20107;-73
2022/06/08 00:14:15;;;;;;;1.23;1.10;;;;;;;14.20;82.25;98193.28;4186191;28;20033;-73
2022/06/08 00:16:16;;;;;;;1.30;1.20;;;;;;;14.28;81.48;98192.00;4185753;28;20094;-72
2022/06/08 00:18:16;;;;;;;1.40;1.30;;;;;;;14.32;81.16;98190.00;4186852;28;20504;-73
2022/06/08 00:20:17;;;;;;;2.53;1.40;;;;;;;14.31;82.59;98192.00;4185616;28;20111;-73
2022/06/08 00:22:17;;;;;;;1.27;1.10;;;;;;;14.32;81.94;98192.78;4192562;28;20792;-73
2022/06/08 00:24:19;;;;;;;1.45;1.35;;;;;;;14.28;82.93;98186.44;4186293;28;20020;-73
2022/06/08 00:26:19;;;;;;;2.03;1.70;;;;;;;14.22;83.90;98197.22;4185252;28;20120;-73
2022/06/08 00:28:19;;;;;;;2.22;1.23;;;;;;;14.14;83.98;98183.78;4191609;28;20056;-73
2022/06/08 00:30:20;;;;;;;1.98;1.60;;;;;;;13.99;86.34;98185.88;4186975;28;20029;-73
2022/06/08 00:32:21;;;;;;;2.30;1.33;;;;;;;13.92;86.41;98180.38;4186118;28;20067;-73
2022/06/08 00:34:21;;;;;;;3.08;1.45;;;;;;;13.90;85.50;98180.78;4186084;28;20083;-73
2022/06/08 00:36:22;;;;;;;1.48;1.35;;;;;;;13.93;84.03;98179.94;4186525;28;20459;-73
2022/06/08 00:38:22;;;;;;;2.25;1.38;;;;;;;13.91;84.98;98170.44;4185662;28;20037;-72
2022/06/08 00:40:34;;;;;;;1.70;1.40;;;;;;;13.87;85.12;98178.00;4186180;28;20056;-73
2022/06/08 00:42:35;;;;;;;1.63;1.13;;;;;;;13.79;86.01;98174.47;4186191;28;20033;-72
2022/06/08 00:44:42;;;;;;;1.55;1.45;;;;;;;13.76;86.53;98178.06;4185509;28;20043;-73
2022/06/08 00:46:43;;;;;;;1.92;1.40;;;;;;;13.72;87.33;98180.84;4186117;28;20036;-73
2022/06/08 00:48:49;;;;;;;1.50;1.40;;;;;;;13.71;86.25;98170.16;4185288;28;20049;-73
2022/06/08 00:50:52;;;;;;;1.58;1.33;;;;;;;13.68;85.43;98169.00;4186248;28;20044;-73
2022/06/08 00:52:54;;;;;;;2.80;1.30;;;;;;;13.67;86.47;98172.97;4192675;28;20482;-73
2022/06/08 00:54:59;;;;;;;1.70;1.40;;;;;;;13.63;87.08;98166.63;4191685;28;20063;-73
2022/06/08 00:57:10;;;;;;;2.58;1.50;;;;;;;13.62;86.52;98162.25;4188280;28;20098;-73
2022/06/08 00:59:11;;;;;;;1.83;1.50;;;;;;;13.60;86.74;98156.31;4186894;28;20079;-73
2022/06/08 01:01:12;;;;;;;2.22;1.60;;;;;;;13.58;87.72;98157.94;4191255;28;20051;-73
2022/06/08 01:03:14;;;;;;;2.00;1.58;;;;;;;13.49;87.25;98148.06;4190178;28;20040;-73
2022/06/08 01:05:21;;;;;;;1.75;1.60;;;;;;;13.49;87.10;98156.41;4191977;28;20462;-73
2022/06/08 01:07:21;;;;;;;1.80;1.70;;;;;;;13.40;90.44;98155.22;4186442;28;20327;-73
2022/06/08 01:09:32;;;;;;;3.85;1.70;;;;;;;13.41;89.81;98160.41;4190742;28;20066;-73
2022/06/08 01:11:44;;;;;;;2.95;1.67;;;;;;;13.44;88.31;98154.03;4191578;27;20071;-73
2022/06/08 01:13:44;;;;;;;2.15;1.95;;;;;;;13.48;88.56;98152.00;4191911;27;20469;-73
2022/06/08 01:15:45;;;;;;;1.92;1.63;;;;;;;13.44;88.94;98147.69;4186251;28;20032;-73
2022/06/08 01:17:45;;;;;;;1.70;1.55;;;;;;;13.45;89.43;98149.25;4185674;28;20045;-73
2022/06/08 01:19:48;;;;;;;2.05;1.73;;;;;;;13.45;88.22;98147.25;4188799;28;20045;-73
2022/06/08 01:21:49;;;;;;;;;;;;;;;13.47;87.83;98150.44;4188034;28;20044;-73
2022/06/08 01:24:00;;;;;;;2.53;1.52;;;;;;;13.43;88.32;98146.88;4186264;28;20336;-73
2022/06/08 01:26:17;;;;;;;1.95;1.48;;;;;;;13.42;88.90;98144.53;4191502;28;20048;-73
2022/06/08 01:28:35;;;;;;;1.58;1.42;;;;;;;13.44;87.20;98154.03;4188267;28;20028;-73
2022/06/08 01:30:41;;;;;;;2.35;1.50;;;;;;;13.48;86.81;98146.44;4189009;28;20053;-73
2022/06/08 01:33:03;;;;;;;1.63;1.52;;;;;;;13.44;88.56;98159.59;4188881;28;20061;-73
2022/06/08 01:35:22;;;;;;;2.45;1.63;;;;;;;13.41;87.49;98152.06;4188009;28;20501;-73
2022/06/08 01:37:51;;;;;;;3.75;1.92;;;;;;;13.29;88.94;98149.72;4188522;28;20158;-73
2022/06/08 01:40:16;;;;;;;2.95;1.50;;;;;;;13.22;89.95;98141.41;4194035;28;20045;-73
2022/06/08 01:42:24;;;;;;;2.55;1.50;;;;;;;13.17;89.89;98139.84;4187800;28;20053;-73
2022/06/08 01:47:24;;;;;;;2.63;1.52;;;;;;;13.14;88.60;98126.75;4188501;28;20110;-73
2022/06/08 01:49:59;;;;;;;2.30;1.60;;;;;;;13.15;89.73;98122.75;4187621;28;20491;-72
2022/06/08 01:52:34;;;;;;;1.80;1.50;;;;;;;13.08;90.59;98117.25;4186433;28;20127;-72
2022/06/08 01:54:53;;;;;;;1.58;1.48;;;;;;;13.11;89.61;98105.34;4193757;27;20048;-73
2022/06/08 01:57:10;;;;;;;2.22;1.60;;;;;;;13.13;89.01;98107.72;4187883;28;20494;-73
2022/06/08 01:59:48;;;;;;;3.45;1.70;;;;;;;13.17;88.36;98111.28;4187746;28;20631;-73
2022/06/08 02:01:58;;;;;;;1.80;1.63;;;;;;;13.20;88.76;98104.94;4188211;28;20041;-73
2022/06/08 02:04:11;;;;;;;3.13;1.90;;;;;;;13.22;91.83;98110.88;4188171;28;20143;-73
2022/06/08 02:06:23;;;;;;;2.30;2.10;;;;;;;13.20;91.56;98107.72;4187610;28;20427;-73
2022/06/08 02:08:39;;;;;;;3.22;1.90;;;;;;;13.21;91.52;98118.41;4188826;28;20115;-73
2022/06/08 02:11:20;;;;;;;1.73;1.63;;;;;;;13.23;89.79;98115.22;4190418;28;20041;-73
2022/06/08 02:13:33;;;;;;;2.10;1.90;;;;;;;13.23;92.12;98112.44;4187014;28;20060;-73
2022/06/08 02:15:38;;;;;;;2.97;2.10;;;;;;;13.18;92.46;98118.41;4188113;28;20887;-73
2022/06/08 02:17:50;;;;;;;3.65;2.00;;;;;;;13.23;91.47;98122.75;4187828;28;20042;-73
2022/06/08 02:20:06;;;;;;;3.97;1.90;;;;;;;13.20;91.98;98121.59;4193656;28;20090;-73
2022/06/08 02:22:31;;;;;;;2.22;1.77;;;;;;;13.19;93.98;98115.25;4193881;28;20040;-73
2022/06/08 02:24:37;;;;;;;4.40;2.13;;;;;;;13.21;95.42;98112.06;4194322;28;20056;-73
2022/06/08 02:26:41;;;;;;;2.80;1.85;;;;;;;13.33;93.69;98113.59;4187850;28;20056;-73
2022/06/08 02:28:48;;;;;;;4.80;1.90;;;;;;;13.43;94.96;98105.19;4195867;27;20488;-73
2022/06/08 02:30:53;;;;;;;3.10;1.70;;;;;;;13.53;94.13;98111.09;4188621;28;20036;-73
2022/06/08 02:35:32;;;;;;;2.78;1.70;;;;;;;13.74;93.84;98106.19;4187284;28;20174;-73
2022/06/08 02:37:35;;;;;;;2.00;1.50;;;;;;;13.78;92.47;98104.16;4188116;28;20199;-73
2022/06/08 02:39:55;;;;;;;;;;;;;;;13.85;92.05;98105.31;4186696;28;20098;-73
2022/06/08 02:42:03;;;;;;;2.13;1.70;;;;;;;13.84;92.63;98106.53;4187616;28;19916;-73
2022/06/08 02:44:09;;;;;;;2.97;1.90;;;;;;;13.87;92.25;98106.50;4192735;28;20070;-73
2022/06/08 02:46:19;;;;;;;2.42;2.03;;;;;;;13.90;92.41;98104.88;4187209;28;20041;-73
2022/06/08 02:48:19;;;;;;;2.00;1.80;;;;;;;13.90;92.97;98107.66;4186641;28;20040;-73
2022/06/08 02:50:25;;;;;;;1.85;1.45;;;;;;;13.90;92.97;98116.00;4187530;28;20035;-73
2022/06/08 02:52:27;;;;;;;3.22;1.77;;;;;;;13.89;92.76;98109.66;4191393;27;20127;-73
2022/06/08 02:54:28;;;;;;;1.85;1.73;;;;;;;13.88;91.85;98104.50;4187018;28;20384;-73
2022/06/08 02:56:35;;;;;;;1.95;1.75;;;;;;;13.93;91.54;98107.66;4187290;28;20037;-73
2022/06/08 02:58:43;;;;;;;2.25;1.60;;;;;;;13.98;91.17;98111.97;4188783;28;20101;-73
2022/06/08 03:01:10;;;;;;;2.03;1.50;;;;;;;13.98;91.17;98110.00;4189336;28;20473;-73
2022/06/08 03:03:18;;;;;;;5.22;1.60;;;;;;;13.99;91.18;98110.78;4193575;27;20315;-73
2022/06/08 03:05:24;;;;;;;1.30;1.20;;;;;;;14.04;88.80;98107.53;4186645;28;20485;-73
2022/06/08 03:07:28;;;;;;;2.28;1.30;;;;;;;14.07;88.06;98109.53;4191862;27;20472;-73
2022/06/08 03:09:31;;;;;;;2.55;1.40;;;;;;;14.10;89.44;98108.69;4187515;28;20048;-73
2022/06/08 03:11:38;;;;;;;2.38;1.50;;;;;;;14.09;89.41;98109.13;4195027;27;20311;-73
2022/06/08 03:13:48;;;;;;;1.60;1.50;;;;;;;14.05;89.75;98112.69;4197503;27;20075;-73
2022/06/08 03:15:54;;;;;;;1.50;1.40;;;;;;;14.05;90.61;98112.69;4192122;28;20037;-73
2022/06/08 03:17:54;;;;;;;1.92;1.50;;;;;;;14.08;89.40;98115.88;4192362;27;20040;-73
2022/06/08 03:19:55;;;;;;;2.42;1.40;;;;;;;14.09;88.01;98112.69;4187084;28;20032;-73
2022/06/08 03:21:56;;;;;;;1.48;1.30;;;;;;;14.10;87.60;98108.69;4187864;28;20041;-73
2022/06/08 03:23:57;;;;;;;1.80;1.40;;;;;;;14.12;87.32;98111.06;4186649;28;20296;-73
2022/06/08 03:25:57;;;;;;;2.05;1.70;;;;;;;14.15;88.13;98113.00;4185825;28;20036;-73
2022/06/08 03:27:58;;;;;;;1.50;1.40;;;;;;;14.16;87.13;98112.63;4189895;27;20094;-73
2022/06/08 03:29:58;;;;;;;2.30;1.48;;;;;;;14.18;88.76;98113.00;4186404;28;20115;-73
2022/06/08 03:31:58;;;;;;;3.50;1.60;;;;;;;14.17;88.84;98107.84;4186593;28;20048;-73
2022/06/08 03:33:59;;;;;;;3.55;1.70;;;;;;;14.15;87.95;98104.66;4186888;28;20075;-73
2022/06/08 03:35:59;;;;;;;3.40;1.70;;;;;;;14.17;87.02;98108.63;4186810;28;20036;-73
2022/06/08 03:38:00;;;;;;;1.92;1.73;;;;;;;14.20;87.18;98110.59;4189061;28;20045;-73
2022/06/08 03:40:00;;;;;;;2.35;1.60;;;;;;;14.22;86.35;98105.41;4188207;28;20028;-73
2022/06/08 03:42:01;;;;;;;2.05;1.70;;;;;;;14.26;87.89;98108.16;4186474;28;20086;-73
2022/06/08 03:44:03;;;;;;;3.65;1.75;;;;;;;14.25;87.52;98106.59;4187151;28;20504;-73
2022/06/08 03:46:06;;;;;;;2.88;1.85;;;;;;;14.25;86.90;98104.59;4193892;27;20028;-73
2022/06/08 03:48:07;;;;;;;2.38;1.70;;;;;;;14.26;86.38;98103.38;4188205;28;20380;-73
2022/06/08 03:50:11;;;;;;;2.28;1.80;;;;;;;14.27;86.12;98113.31;4189698;28;20051;-73
2022/06/08 03:52:17;;;;;;;2.60;2.00;;;;;;;14.24;88.16;98114.16;4192961;28;20028;-73
2022/06/08 03:54:21;;;;;;;2.15;1.75;;;;;;;14.22;86.96;98107.38;4186870;28;20029;-73
2022/06/08 03:56:24;;;;;;;6.93;2.10;;;;;;;14.23;87.29;98114.53;4186211;28;20876;-73
2022/06/08 03:58:25;;;;;;;3.08;2.10;;;;;;;14.23;87.31;98111.75;4186054;28;20079;-73
2022/06/08 04:00:26;;;;;;;2.00;1.80;;;;;;;14.20;86.86;98109.81;4185353;28;20385;-73
2022/06/08 04:02:28;;;;;;;2.05;1.65;;;;;;;14.24;85.41;98108.59;4193035;28;20155;-72
2022/06/08 04:04:29;;;;;;;2.88;1.73;;;;;;;14.30;85.57;98111.69;4185155;28;20045;-73
2022/06/08 04:06:29;;;;;;;3.72;2.65;;;;;;;14.31;85.04;98107.69;4185045;28;20099;-73
2022/06/08 04:08:31;;;;;;;3.95;2.10;;;;;;;14.33;85.78;98108.88;4185161;28;20357;-73
2022/06/08 04:10:32;;;;;;;3.47;2.00;;;;;;;14.33;87.39;98110.88;4186631;28;20074;-73
2022/06/08 04:12:32;;;;;;;2.20;2.00;;;;;;;14.29;85.67;98112.91;4186233;28;20041;-73
2022/06/08 04:14:33;;;;;;;4.32;1.98;;;;;;;14.28;85.40;98111.31;4185989;28;20036;-73
2022/06/08 04:16:33;;;;;;;1.85;1.50;;;;;;;14.25;84.32;98109.38;4186393;28;20398;-73
2022/06/08 04:18:34;;;;;;;3.13;1.60;;;;;;;14.26;84.46;98113.72;4182624;28;20049;-73
2022/06/08 04:20:35;;;;;;;3.25;1.80;;;;;;;14.30;84.88;98117.25;4189532;27;20075;-73
2022/06/08 04:22:35;;;;;;;3.40;1.85;;;;;;;14.27;86.00;98118.09;4186431;28;20049;-73
2022/06/08 04:24:36;;;;;;;2.22;1.83;;;;;;;14.25;85.45;98120.50;4186784;28;20051;-73
2022/06/08 04:26:36;;;;;;;2.35;1.70;;;;;;;14.25;84.38;98112.94;4186309;28;20041;-73
2022/06/08 04:28:37;;;;;;;11.27;2.65;;;;;;;14.36;84.79;98125.97;4187229;27;20746;-73
2022/06/08 04:30:37;;;;;;;5.43;2.03;;;;;;;14.43;84.44;98114.75;4190198;27;20119;-73
2022/06/08 04:32:38;;;;;;;3.17;1.67;;;;;;;14.48;83.57;98108.75;4187763;28;20119;-73
2022/06/08 04:34:40;;;;;;;3.90;2.25;;;;;;;14.56;84.13;98115.84;4189703;28;20040;-73
2022/06/08 04:36:42;;;;;;;5.82;1.83;;;;;;;14.63;83.56;98117.75;4188589;28;20122;-73
2022/06/08 04:38:42;;;;;;;3.25;1.80;;;;;;;14.70;83.37;98117.69;4188867;28;20552;-73
2022/06/08 04:40:46;;;;;;;4.20;1.70;;;;;;;14.82;82.62;98111.59;4191098;28;20056;-73
2022/06/08 04:42:48;;;;;;;2.22;1.88;;;;;;;14.91;82.29;98109.09;4187880;28;20045;-73
2022/06/08 04:44:48;;;;;;;4.60;2.20;;;;;;;15.00;82.17;98114.97;4185893;28;20446;-72
2022/06/08 04:46:48;;;;;;;3.30;1.85;;;;;;;15.01;81.97;98107.41;4186132;28;20041;-73
2022/06/08 04:48:49;;;;;;;3.10;1.80;;;;;;;14.97;81.58;98110.22;4185060;28;20079;-73
2022/06/08 04:50:49;;;;;;;3.42;2.17;;;;;;;14.89;83.30;98109.53;4191022;28;20045;-73
2022/06/08 04:52:49;;;;;;;3.35;1.70;;;;;;;14.84;83.50;98106.41;4192029;27;20064;-73
2022/06/08 04:54:50;;;;;;;4.13;1.92;;;;;;;14.76;84.31;98110.47;4183237;28;20125;-73
2022/06/08 04:56:52;;;;;;;4.97;1.92;;;;;;;14.66;85.96;98103.03;4087683;28;20036;-73
2022/06/08 04:58:55;;;;;;;8.07;2.65;;;;;;;14.59;86.50;98112.25;4185067;28;20041;-73
2022/06/08 05:00:56;;;;;;;7.70;2.05;;;;;;;14.54;86.21;98115.47;4183359;28;20047;-73
2022/06/08 05:02:56;;;;;;;3.80;2.25;;;;;;;14.47;85.44;98112.75;4188258;28;20427;-73
2022/06/08 05:04:57;;;;;;;2.67;1.80;;;;;;;14.40;83.83;98099.69;4186921;28;20524;-73
2022/06/08 05:06:57;;;;;;;4.15;1.90;;;;;;;14.41;84.02;98103.25;4187809;28;20047;-73
2022/06/08 05:08:57;;;;;;;2.33;2.00;;;;;;;14.39;85.45;98103.66;4193021;28;20240;-73
2022/06/08 05:10:57;;;;;;;2.42;1.90;;;;;;;14.44;85.74;98108.78;4194214;28;20548;-73
2022/06/08 05:12:59;;;;;;;3.10;1.75;;;;;;;14.55;85.95;98108.69;4187927;28;20186;-73
2022/06/08 05:14:59;;;;;;;4.40;2.05;;;;;;;14.60;85.36;98106.25;4187740;28;20045;-73
2022/06/08 05:17:00;;;;;;;4.15;2.00;;;;;;;14.63;86.71;98106.63;4188274;28;20036;-73
2022/06/08 05:19:00;;;;;;;4.13;1.80;;;;;;;14.81;86.51;98101.66;4190026;28;20136;-73
2022/06/08 05:21:01;;;;;;;4.43;2.95;;;;;;;14.98;86.42;98103.47;4188923;28;20640;-73
2022/06/08 05:23:02;;;;;;;4.35;2.10;;;;;;;15.10;85.46;98102.09;4188328;28;20536;-73
2022/06/08 05:25:04;;;;;;;2.05;1.77;;;;;;;15.25;83.92;98100.72;4188773;28;20123;-73
2022/06/08 05:27:04;;;;;;;3.42;2.00;;;;;;;15.39;84.02;98097.75;4188860;28;20161;-73
2022/06/08 05:29:05;;;;;;;3.72;1.60;;;;;;;15.54;83.96;98097.53;4190826;28;20056;-73
2022/06/08 05:31:05;;;;;;;4.90;1.85;;;;;;;15.67;82.21;98101.38;4187973;28;20482;-73
2022/06/08 05:33:06;;;;;;;1.70;1.30;;;;;;;15.78;80.73;98103.97;4188521;28;20045;-73
2022/06/08 05:35:07;;;;;;;3.53;1.55;;;;;;;15.92;80.93;98101.75;4187855;28;20379;-73
2022/06/08 05:37:07;;;;;;;2.00;1.40;;;;;;;16.04;78.24;98100.38;4187544;28;20536;-73
2022/06/08 05:39:08;;;;;;;1.70;1.52;;;;;;;16.15;77.13;98101.00;4193106;27;20040;-73
2022/06/08 05:41:08;;;;;;;2.80;1.63;;;;;;;16.29;78.22;98100.75;4187909;28;20472;-73
2022/06/08 05:43:11;;;;;;;2.40;1.65;;;;;;;16.32;76.10;98101.13;4191156;28;20365;-73
2022/06/08 05:45:17;;;;;;;1.90;1.50;;;;;;;16.28;76.91;98090.78;4187560;28;20040;-73
2022/06/08 05:47:17;;;;;;;1.50;1.40;;;;;;;16.34;76.93;98102.25;4188806;28;20047;-73
2022/06/08 05:49:18;;;;;;;4.95;1.50;;;;;;;16.38;78.11;98091.81;4186489;28;20385;-73
2022/06/08 05:51:18;;;;;;;3.05;1.70;;;;;;;16.44;76.40;98094.91;4188659;28;20045;-73
2022/06/08 05:53:18;;;;;;;3.83;1.65;;;;;;;16.51;77.20;98100.38;4193985;28;20433;-73
2022/06/08 05:55:21;;;;;;;1.90;1.60;;;;;;;16.56;78.69;98097.88;4188197;28;20052;-73
2022/06/08 05:57:22;;;;;;;2.60;1.70;;;;;;;16.62;77.78;98095.38;4186661;28;20080;-73
2022/06/08 05:59:22;;;;;;;1.85;1.60;;;;;;;16.68;77.79;98102.03;4188301;28;20060;-73
2022/06/08 06:01:22;;;;;;;1.55;1.40;;;;;;;16.76;76.84;98099.94;4187879;28;20044;-73
2022/06/08 06:03:23;;;;;;;1.70;1.50;;;;;;;16.89;76.94;98105.69;4190189;28;20044;-73
2022/06/08 06:05:28;;;;;;;1.98;1.77;;;;;;;16.94;74.91;98099.56;4192257;28;21218;-73
2022/06/08 06:07:28;;;;;;;4.75;2.00;;;;;;;16.99;75.57;98101.88;4188301;28;20209;-73
2022/06/08 06:09:29;;;;;;;1.55;1.30;;;;;;;17.04;75.28;98098.56;4187411;28;20072;-73
2022/06/08 06:11:30;;;;;;;1.85;1.40;;;;;;;17.09;74.67;98095.28;4188873;28;20060;-73
2022/06/08 06:13:32;;;;;;;3.45;1.23;;;;;;;17.13;73.39;98101.59;4193784;27;20060;-73
2022/06/08 06:15:32;;;;;;;2.70;1.40;;;;;;;17.21;74.73;98097.44;4189979;28;20044;-73
2022/06/08 06:17:33;;;;;;;1.75;1.35;;;;;;;17.24;72.21;98090.97;4198575;27;20059;-73
2022/06/08 06:19:33;;;;;;;1.52;1.30;;;;;;;17.35;73.26;98090.72;4187199;28;20051;-73
2022/06/08 06:21:34;;;;;;;1.00;0.90;;;;;;;17.44;72.46;98092.94;4188082;28;20420;-73
2022/06/08 06:23:34;;;;;;;1.20;1.10;;;;;;;17.53;71.90;98087.53;4187799;28;20072;-73
2022/06/08 06:25:34;;;;;;;1.05;0.93;;;;;;;17.60;71.56;98081.78;4188123;28;20447;-73
2022/06/08 06:27:35;;;;;;;2.60;1.48;;;;;;;17.79;71.31;98088.56;4193700;28;20362;-73
2022/06/08 06:29:36;;;;;;;2.20;1.10;;;;;;;17.89;68.66;98095.94;4187188;28;20135;-73
2022/06/08 06:31:46;;;;;;;1.58;1.00;;;;;;;17.92;67.50;98079.03;4187883;28;20207;-73
2022/06/08 06:33:47;;;;;;;1.50;1.13;;;;;;;17.93;67.91;98086.22;4187552;28;20044;-73
2022/06/08 06:35:47;;;;;;;0.80;0.80;;;;;;;18.05;67.80;98084.75;4193734;27;20037;-73
2022/06/08 06:37:49;;;;;;;1.27;1.17;;;;;;;18.14;67.50;98086.94;4187924;28;20519;-73
2022/06/08 06:39:50;;;;;;;1.35;1.02;;;;;;;18.20;66.67;98085.16;4186877;28;20037;-73
2022/06/08 06:41:50;;;;;;;1.10;1.00;;;;;;;18.35;67.95;98083.56;4187383;28;20495;-73
2022/06/08 06:43:52;;;;;;;2.08;0.85;;;;;;;18.32;66.71;98078.84;4187599;28;20072;-73
2022/06/08 06:45:52;;;;;;;2.10;1.52;;;;;;;18.16;66.48;98082.47;4187981;28;20052;-73
2022/06/08 06:47:52;;;;;;;3.47;1.30;;;;;;;18.28;68.13;98075.34;4190665;28;20045;-73
2022/06/08 06:49:53;;;;;;;2.22;1.38;;;;;;;18.21;66.02;98081.16;4186998;28;20128;-73
2022/06/08 06:51:54;;;;;;;1.98;1.10;;;;;;;18.28;66.78;98077.38;4194059;28;20128;-73
2022/06/08 06:53:55;;;;;;;1.42;1.20;;;;;;;18.33;66.44;98079.66;4191742;28;20037;-73
2022/06/08 06:55:55;;;;;;;2.15;1.05;;;;;;;18.51;65.90;98079.97;4191624;28;20044;-73
2022/06/08 06:57:56;;;;;;;1.17;0.82;;;;;;;18.60;61.87;98074.50;4188600;27;20037;-73
2022/06/08 06:59:57;;;;;;;3.25;1.23;;;;;;;18.61;64.17;98067.66;4186928;28;20498;-73
2022/06/08 07:01:57;;;;;;;1.35;1.00;;;;;;;18.64;64.21;98077.22;4192671;28;20258;-73
2022/06/08 07:03:58;;;;;;;1.60;1.25;;;;;;;18.64;64.06;98078.00;4187045;28;20048;-73
2022/06/08 07:05:58;;;;;;;2.55;1.25;;;;;;;18.65;64.38;98081.59;4190043;28;20041;-73
2022/06/08 07:07:59;;;;;;;2.90;1.10;;;;;;;18.77;63.54;98072.47;4187142;28;20036;-73
2022/06/08 07:09:59;;;;;;;1.45;1.17;;;;;;;18.69;62.18;98071.88;4187088;28;20037;-73
2022/06/08 07:12:00;;;;;;;2.05;1.23;;;;;;;18.57;62.48;98067.00;4188953;27;20045;-73
2022/06/08 07:14:02;;;;;;;1.50;1.13;;;;;;;18.66;62.43;98064.38;4187095;28;20102;-73
2022/06/08 07:16:04;;;;;;;1.55;1.00;;;;;;;18.78;62.30;98060.03;4191817;27;20387;-73
2022/06/08 07:18:05;;;;;;;1.23;1.02;;;;;;;18.70;63.03;98055.84;4186790;28;20020;-73
2022/06/08 07:20:06;;;;;;;1.90;1.30;;;;;;;18.85;63.39;98056.25;4186239;28;20036;-73
2022/06/08 07:22:06;;;;;;;1.65;1.25;;;;;;;18.91;61.64;98054.47;4186888;28;20081;-73
2022/06/08 07:24:08;;;;;;;1.30;1.20;;;;;;;18.97;61.60;98047.88;4186641;28;20081;-73
2022/06/08 07:26:08;;;;;;;2.45;1.30;;;;;;;19.04;61.93;98044.09;4186582;28;20104;-73
2022/06/08 07:28:09;;;;;;;1.45;1.05;;;;;;;19.13;60.83;98043.44;4187104;28;20123;-73
2022/06/08 07:30:10;;;;;;;1.65;1.30;;;;;;;19.17;63.11;98044.88;4186046;28;20475;-74
2022/06/08 07:32:10;;;;;;;1.45;1.30;;;;;;;19.20;62.24;98037.63;4186314;28;20029;-73
2022/06/08 07:34:13;;;;;;;1.80;1.48;;;;;;;19.27;63.22;98034.56;4189793;28;20101;-73
2022/06/08 07:36:14;;;;;;;1.50;1.17;;;;;;;19.22;61.35;98030.31;4195952;28;20046;-73
2022/06/08 07:38:14;;;;;;;5.30;1.50;;;;;;;19.25;61.87;98025.81;4186767;28;20111;-73
2022/06/08 07:40:15;;;;;;;2.25;1.30;;;;;;;19.17;63.36;98024.47;4186185;28;20111;-74
2022/06/08 07:42:17;;;;;;;4.05;1.52;;;;;;;19.02;63.63;98024.09;4186766;28;20033;-73
2022/06/08 07:44:18;;;;;;;2.15;1.35;;;;;;;19.00;61.84;98020.97;4186473;28;20032;-74
2022/06/08 07:46:19;;;;;;;1.65;1.13;;;;;;;19.06;60.77;98010.78;4185880;28;20403;-73
2022/06/08 07:50:40;;;;;;;1.33;1.00;;;;;;;19.31;62.02;98018.44;4192049;27;20043;-73
2022/06/08 07:52:41;;;;;;;2.78;1.17;;;;;;;19.45;61.70;98022.84;4187386;28;20292;-74
2022/06/08 07:54:42;;;;;;;1.73;1.20;;;;;;;19.57;59.33;98022.84;4186578;28;20033;-73
2022/06/08 07:56:43;;;;;;;2.65;1.20;;;;;;;19.63;59.46;98020.28;4186695;28;20131;-73
2022/06/08 07:58:43;;;;;;;1.20;1.10;;;;;;;19.64;57.93;98011.41;4185558;28;20516;-73
2022/06/08 08:00:47;;;;;;;2.33;1.20;;;;;;;19.74;58.34;98014.31;4186269;28;20048;-73
2022/06/08 08:02:47;;;;;;;3.20;1.17;;;;;;;19.69;58.42;98015.63;4186207;28;20072;-73
2022/06/08 08:04:47;;;;;;;2.22;1.13;;;;;;;19.87;57.17;98017.88;4186762;28;20044;-73
2022/06/08 08:06:48;;;;;;;1.50;1.10;;;;;;;19.90;57.11;98016.97;4186375;28;20049;-73
2022/06/08 08:08:49;;;;;;;2.85;1.20;;;;;;;19.76;58.81;98009.00;4185855;28;20029;-74
2022/06/08 08:10:49;;;;;;;4.55;1.30;;;;;;;19.75;56.68;98013.84;4187636;28;20131;-74
2022/06/08 08:12:51;;;;;;;1.58;1.00;;;;;;;19.74;56.15;98011.50;4186412;28;20041;-73
2022/06/08 08:14:52;;;;;;;1.65;1.23;;;;;;;19.64;57.17;98019.03;4192680;27;20041;-74
2022/06/08 08:16:53;;;;;;;2.63;1.10;;;;;;;19.54;57.22;98006.88;4186193;28;20519;-73
2022/06/08 08:18:53;;;;;;;2.85;1.05;;;;;;;19.50;57.83;98009.00;4190116;28;20062;-74
2022/06/08 08:20:53;;;;;;;3.00;1.15;;;;;;;19.70;58.00;98014.44;4187778;28;20049;-73
2022/06/08 08:22:54;;;;;;;1.80;1.42;;;;;;;19.95;59.07;98005.19;4188003;28;20536;-73
2022/06/08 08:24:54;;;;;;;2.65;1.20;;;;;;;20.05;56.59;98001.22;4192556;27;20053;-73
2022/06/08 08:26:56;;;;;;;1.67;1.10;;;;;;;20.21;57.02;97997.47;4188199;28;20051;-73
2022/06/08 08:28:57;;;;;;;1.90;1.13;;;;;;;20.38;55.92;98006.50;4185426;28;20037;-73
2022/06/08 08:30:57;;;;;;;2.10;1.02;;;;;;;20.37;55.73;97996.53;4192099;28;20713;-74
2022/06/08 08:32:58;;;;;;;8.23;4.53;;;;;;;20.26;55.80;97991.25;4190385;28;20043;-74
2022/06/08 08:34:58;;;;;;;5.50;2.80;;;;;;;20.13;56.24;97985.69;4191480;27;20043;-73
2022/06/08 08:36:58;;;;;;;2.67;1.60;;;;;;;20.15;56.14;97988.84;4191766;28;20466;-74
2022/06/08 08:38:59;;;;;;;2.65;1.13;;;;;;;20.17;52.80;97991.19;4189385;28;20430;-73
2022/06/08 08:41:02;;;;;;;1.88;1.10;;;;;;;20.26;55.28;97988.44;4196051;28;20048;-73
2022/06/08 08:43:03;;;;;;;1.48;1.15;;;;;;;20.34;55.02;97988.97;4189253;28;20059;-73
2022/06/08 08:45:15;;;;;;;1.35;1.20;;;;;;;20.48;54.48;97986.50;4189220;28;20124;-73
2022/06/08 08:47:28;;;;;;;2.63;1.10;;;;;;;20.71;52.93;97990.88;4189407;28;20040;-74
2022/06/08 08:49:32;;;;;;;1.20;1.10;;;;;;;20.78;52.30;97983.44;4188740;28;20352;-74
2022/06/08 08:51:44;;;;;;;1.77;1.20;;;;;;;20.89;52.70;97981.00;4189210;28;20460;-74
2022/06/08 08:54:04;;;;;;;1.30;1.20;;;;;;;20.82;53.86;97975.63;4195748;28;20048;-73
2022/06/08 08:56:14;;;;;;;1.40;1.15;;;;;;;20.68;54.35;97986.16;4188365;28;20048;-73
2022/06/08 08:58:16;;;;;;;1.67;1.25;;;;;;;20.86;55.19;97982.69;4210672;27;20051;-73
2022/06/08 09:00:26;;;;;;;1.25;1.10;;;;;;;20.74;53.34;97975.91;4188688;28;20040;-73
2022/06/08 09:04:49;;;;;;;2.47;1.30;;;;;;;20.56;54.69;97970.16;4189286;28;20543;-74
2022/06/08 09:06:49;;;;;;;2.33;1.40;;;;;;;20.14;55.35;97978.06;4189525;28;20044;-73
2022/06/08 09:08:55;;;;;;;2.38;1.60;;;;;;;20.03;55.53;97966.41;4194193;27;20095;-73
2022/06/08 09:10:59;;;;;;;1.67;1.13;;;;;;;20.00;55.19;97967.31;4188919;28;20043;-74
2022/06/08 09:13:03;;;;;;;0.95;0.90;;;;;;;20.22;55.87;97965.34;4190810;27;20076;-74
2022/06/08 09:15:04;;;;;;;1.92;1.50;;;;;;;20.51;56.04;97962.31;4189022;28;20195;-74
2022/06/08 09:17:33;;;;;;;1.42;1.33;;;;;;;20.72;52.37;97958.72;4189027;28;20043;-74
2022/06/08 09:19:48;;;;;;;2.08;1.52;;;;;;;20.59;53.00;97957.19;4188156;28;20181;-73
2022/06/08 09:21:50;;;;;;;1.73;1.55;;;;;;;20.42;54.89;97960.19;4188678;28;20051;-73
2022/06/08 09:24:01;;;;;;;2.67;1.37;;;;;;;20.25;54.94;97958.00;4194185;28;20556;-73
2022/06/08 09:26:07;;;;;;;2.03;1.48;;;;;;;20.32;53.94;97957.75;4188152;28;20044;-73
2022/06/08 09:28:26;;;;;;;3.80;1.60;;;;;;;20.30;55.01;97963.06;4188521;28;20271;-73
2022/06/08 09:30:31;;;;;;;4.15;1.77;;;;;;;20.22;54.75;97956.91;4188686;28;20094;-74
2022/06/08 09:32:37;;;;;;;3.13;1.60;;;;;;;20.14;54.15;97958.41;4188870;28;20064;-73
2022/06/08 09:34:38;;;;;;;1.95;1.33;;;;;;;20.08;53.69;97949.75;4188118;28;20452;-73
2022/06/08 09:36:39;;;;;;;1.80;1.57;;;;;;;20.19;53.18;97943.78;4190526;28;20044;-74
2022/06/08 09:38:42;;;;;;;2.40;1.40;;;;;;;20.51;52.82;97941.84;4192262;28;20279;-73
2022/06/08 09:40:48;;;;;;;3.67;1.63;;;;;;;20.71;52.85;97951.53;4189431;28;20070;-74
2022/06/08 09:43:01;;;;;;;1.35;1.10;;;;;;;20.95;48.88;97937.75;4194578;27;20041;-73
2022/06/08 09:45:13;;;;;;;4.00;2.30;;;;;;;21.17;49.41;97936.91;4193385;28;20037;-73
2022/06/08 09:52:23;;;;;;;4.43;1.63;;;;;;;21.73;48.46;97925.38;4187570;28;20043;-73
2022/06/08 09:54:38;;;;;;;3.28;1.50;;;;;;;21.75;48.43;97922.88;4188826;28;20036;-73
2022/06/08 09:56:53;;;;;;;3.47;1.30;;;;;;;21.58;48.26;97913.94;4190398;28;20044;-74
2022/06/08 09:59:00;;;;;;;1.90;1.52;;;;;;;21.52;49.08;97912.22;4193633;28;20039;-73